createdAt,value
2019-02-24T00:00:51.955Z,1.40
2019-02-24T00:03:20.511Z,1.40
2019-02-24T00:05:48.999Z,1.40
2019-02-24T00:08:17.432Z,1.40
2019-02-24T00:10:45.913Z,1.40
2019-02-24T00:13:14.321Z,1.40
2019-02-24T00:15:42.812Z,1.40
2019-02-24T00:18:11.343Z,1.40
2019-02-24T00:20:39.768Z,1.40
2019-02-24T00:23:08.400Z,1.40
2019-02-24T00:25:36.806Z,1.50
2019-02-24T00:28:07.382Z,1.50
2019-02-24T00:30:35.253Z,1.50
2019-02-24T00:33:03.637Z,1.50
2019-02-24T00:35:32.161Z,1.50
2019-02-24T00:38:00.594Z,1.50
2019-02-24T00:40:29.156Z,1.40
2019-02-24T00:42:57.570Z,1.50
2019-02-24T00:45:26.018Z,1.50
2019-02-24T00:47:54.442Z,1.40
2019-02-24T00:50:22.922Z,1.40
2019-02-24T00:52:51.334Z,1.40
2019-02-24T00:55:19.823Z,1.40
2019-02-24T00:57:58.694Z,1.40
2019-02-24T01:00:27.382Z,1.40
2019-02-24T01:02:55.862Z,1.40
2019-02-24T01:05:24.272Z,1.40
2019-02-24T01:07:52.687Z,1.40
2019-02-24T01:10:21.089Z,1.50
2019-02-24T01:12:49.585Z,1.50
2019-02-24T01:15:17.999Z,1.50
2019-02-24T01:17:46.527Z,1.40
2019-02-24T01:20:14.944Z,1.40
2019-02-24T01:22:43.427Z,1.40
2019-02-24T01:25:11.839Z,1.40
2019-02-24T01:27:40.319Z,1.40
2019-02-24T01:30:10.582Z,1.40
2019-02-24T01:32:38.994Z,1.40
2019-02-24T01:35:08.383Z,1.40
2019-02-24T01:37:36.804Z,1.40
2019-02-24T01:40:07.060Z,1.40
2019-02-24T01:42:35.770Z,1.40
2019-02-24T01:45:05.018Z,1.30
2019-02-24T01:47:33.442Z,1.40
2019-02-24T01:50:02.809Z,1.40
2019-02-24T01:52:31.210Z,1.40
2019-02-24T01:54:59.699Z,1.40
2019-02-24T01:57:28.114Z,1.40
2019-02-24T01:59:56.606Z,1.40
2019-02-24T02:02:25.024Z,1.40
2019-02-24T02:04:53.507Z,1.40
2019-02-24T02:07:21.928Z,1.40
2019-02-24T02:09:50.346Z,1.30
2019-02-24T02:12:18.760Z,1.30
2019-02-24T02:14:47.251Z,1.40
2019-02-24T02:17:15.663Z,1.40
2019-02-24T02:19:44.147Z,1.30
2019-02-24T02:22:12.566Z,1.30
2019-02-24T02:24:41.048Z,1.30
2019-02-24T02:27:09.469Z,1.40
2019-02-24T02:29:37.949Z,1.30
2019-02-24T02:32:30.352Z,1.40
2019-02-24T02:34:58.830Z,1.30
2019-02-24T02:37:27.240Z,1.30
2019-02-24T02:39:55.691Z,1.40
2019-02-24T02:42:24.105Z,1.40
2019-02-24T02:44:52.590Z,1.40
2019-02-24T02:47:21.005Z,1.30
2019-02-24T02:49:49.415Z,1.30
2019-02-24T02:52:17.931Z,1.30
2019-02-24T02:54:46.354Z,1.40
2019-02-24T02:57:14.728Z,1.30
2019-02-24T02:59:43.111Z,1.40
2019-02-24T03:02:11.603Z,1.40
2019-02-24T03:04:40.010Z,1.40
2019-02-24T03:07:18.953Z,1.30
2019-02-24T03:09:47.362Z,1.30
2019-02-24T03:12:15.761Z,1.40
2019-02-24T03:14:44.136Z,1.40
2019-02-24T03:17:12.570Z,1.40
2019-02-24T03:19:40.960Z,1.30
2019-02-24T03:22:09.444Z,1.40
2019-02-24T03:24:37.863Z,1.40
2019-02-24T03:27:06.346Z,1.40
2019-02-24T03:29:34.763Z,1.30
2019-02-24T03:32:03.249Z,1.40
2019-02-24T03:34:31.659Z,1.30
2019-02-24T03:37:00.072Z,1.30
2019-02-24T03:39:28.483Z,1.30
2019-02-24T03:41:57.000Z,1.40
2019-02-24T03:44:25.381Z,1.30
2019-02-24T03:46:53.860Z,1.40
2019-02-24T03:49:22.271Z,1.40
2019-02-24T03:51:50.715Z,1.30
2019-02-24T03:54:19.132Z,1.40
2019-02-24T03:56:47.650Z,1.30
2019-02-24T03:59:16.062Z,1.30
2019-02-24T04:01:44.552Z,1.30
2019-02-24T04:04:15.890Z,1.30
2019-02-24T04:06:44.312Z,1.30
2019-02-24T04:09:12.726Z,1.30
2019-02-24T04:11:41.203Z,1.30
2019-02-24T04:14:09.728Z,1.30
2019-02-24T04:16:38.138Z,1.30
2019-02-24T04:19:06.551Z,1.20
2019-02-24T04:21:34.971Z,1.30
2019-02-24T04:24:03.398Z,1.30
2019-02-24T04:26:31.811Z,1.30
2019-02-24T04:29:00.296Z,1.30
2019-02-24T04:31:28.721Z,1.30
2019-02-24T04:33:57.151Z,1.20
2019-02-24T04:36:25.549Z,1.20
2019-02-24T04:38:54.043Z,1.20
2019-02-24T04:41:22.457Z,1.20
2019-02-24T04:43:50.893Z,1.30
2019-02-24T04:46:19.323Z,1.20
2019-02-24T04:48:47.815Z,1.20
2019-02-24T04:51:16.222Z,1.20
2019-02-24T04:53:44.712Z,1.20
2019-02-24T04:56:13.125Z,1.20
2019-02-24T04:58:41.617Z,1.20
2019-02-24T05:01:10.026Z,1.20
2019-02-24T05:03:38.444Z,1.20
2019-02-24T05:06:06.922Z,1.20
2019-02-24T05:08:35.338Z,1.20
2019-02-24T05:11:03.755Z,1.20
2019-02-24T05:13:32.171Z,1.20
2019-02-24T05:16:00.652Z,1.20
2019-02-24T05:18:29.095Z,1.30
2019-02-24T05:20:57.512Z,1.20
2019-02-24T05:23:25.996Z,1.20
2019-02-24T05:25:54.413Z,1.20
2019-02-24T05:28:22.899Z,1.20
2019-02-24T05:30:51.319Z,1.20
2019-02-24T05:33:19.738Z,1.20
2019-02-24T05:35:48.146Z,1.20
2019-02-24T05:38:16.640Z,1.20
2019-02-24T05:40:45.050Z,1.20
2019-02-24T05:43:13.545Z,1.20
2019-02-24T05:45:41.959Z,1.20
2019-02-24T05:48:10.376Z,1.20
2019-02-24T05:50:38.809Z,1.10
2019-02-24T05:53:07.224Z,1.20
2019-02-24T05:55:35.594Z,1.20
2019-02-24T05:58:03.975Z,1.10
2019-02-24T06:00:32.454Z,1.10
2019-02-24T06:03:00.867Z,1.10
2019-02-24T06:05:29.750Z,1.10
2019-02-24T06:07:58.178Z,1.20
2019-02-24T06:10:26.580Z,1.10
2019-02-24T06:12:54.998Z,1.10
2019-02-24T06:15:23.426Z,1.20
2019-02-24T06:17:51.840Z,1.20
2019-02-24T06:20:20.377Z,1.20
2019-02-24T06:22:48.736Z,1.20
2019-02-24T06:25:17.131Z,1.20
2019-02-24T06:27:45.545Z,1.30
2019-02-24T06:30:13.987Z,1.20
2019-02-24T06:32:42.404Z,1.30
2019-02-24T06:35:10.815Z,1.30
2019-02-24T06:37:39.231Z,1.30
2019-02-24T06:40:08.353Z,1.30
2019-02-24T06:42:36.771Z,1.30
2019-02-24T06:45:07.391Z,1.20
2019-02-24T06:47:35.812Z,1.30
2019-02-24T06:50:06.320Z,1.20
2019-02-24T06:52:34.717Z,1.30
2019-02-24T06:55:03.175Z,1.30
2019-02-24T06:57:31.583Z,1.30
2019-02-24T07:00:00.261Z,1.30
2019-02-24T07:02:28.782Z,1.30
2019-02-24T07:04:57.210Z,1.30
2019-02-24T07:07:25.691Z,1.40
2019-02-24T07:09:54.102Z,1.40
2019-02-24T07:12:22.595Z,1.40
2019-02-24T07:14:51.007Z,1.40
2019-02-24T07:17:19.498Z,1.40
2019-02-24T07:19:47.912Z,1.30
2019-02-24T07:22:16.331Z,1.40
2019-02-24T07:24:44.746Z,1.40
2019-02-24T07:27:13.380Z,1.40
2019-02-24T07:29:41.757Z,1.30
2019-02-24T07:32:10.202Z,1.30
2019-02-24T07:34:38.632Z,1.30
2019-02-24T07:37:12.958Z,1.40
2019-02-24T07:39:37.112Z,1.40
2019-02-24T07:42:07.251Z,1.30
2019-02-24T07:44:35.619Z,1.30
2019-02-24T07:47:04.028Z,1.40
2019-02-24T07:49:32.438Z,1.40
2019-02-24T07:52:00.926Z,1.40
2019-02-24T07:54:29.343Z,1.50
2019-02-24T07:56:57.847Z,1.50
2019-02-24T07:59:26.270Z,1.60
2019-02-24T08:01:54.755Z,1.60
2019-02-24T08:04:23.171Z,1.70
2019-02-24T08:06:51.617Z,1.60
2019-02-24T08:09:20.078Z,1.70
2019-02-24T08:11:48.520Z,1.70
2019-02-24T08:14:16.998Z,1.70
2019-02-24T08:16:45.448Z,1.80
2019-02-24T08:19:13.906Z,1.80
2019-02-24T08:21:42.323Z,1.90
2019-02-24T08:24:10.807Z,1.90
2019-02-24T08:26:39.230Z,1.90
2019-02-24T08:29:07.719Z,1.90
2019-02-24T08:31:36.136Z,1.90
2019-02-24T08:34:04.626Z,1.90
2019-02-24T08:36:33.039Z,2.00
2019-02-24T08:39:01.523Z,2.00
2019-02-24T08:41:30.029Z,2.00
2019-02-24T08:43:58.537Z,2.10
2019-02-24T08:46:26.943Z,2.10
2019-02-24T08:48:55.363Z,2.10
2019-02-24T08:51:23.779Z,2.20
2019-02-24T08:53:52.305Z,2.10
2019-02-24T08:56:20.763Z,2.10
2019-02-24T08:58:49.258Z,2.10
2019-02-24T09:01:17.627Z,2.10
2019-02-24T09:03:46.003Z,2.20
2019-02-24T09:06:14.423Z,2.20
2019-02-24T09:08:42.971Z,2.20
2019-02-24T09:11:11.395Z,2.20
2019-02-24T09:13:39.946Z,2.20
2019-02-24T09:16:08.391Z,2.10
2019-02-24T09:18:37.075Z,2.10
2019-02-24T09:21:05.489Z,2.20
2019-02-24T09:23:33.917Z,2.10
2019-02-24T09:26:02.353Z,2.10
2019-02-24T09:28:30.756Z,2.20
2019-02-24T09:31:01.107Z,2.30
2019-02-24T09:33:29.243Z,2.30
2019-02-24T09:35:57.671Z,2.50
2019-02-24T09:38:26.171Z,2.40
2019-02-24T09:40:54.594Z,2.40
2019-02-24T09:43:23.000Z,2.40
2019-02-24T09:45:51.417Z,2.60
2019-02-24T09:48:19.830Z,2.70
2019-02-24T09:50:48.310Z,2.80
2019-02-24T09:53:36.151Z,2.90
2019-02-24T09:56:04.646Z,2.90
2019-02-24T09:58:33.063Z,3.00
2019-02-24T10:01:09.998Z,3.00
2019-02-24T10:03:31.650Z,3.00
2019-02-24T10:06:00.067Z,3.10
2019-02-24T10:08:28.545Z,3.10
2019-02-24T10:10:56.956Z,3.10
2019-02-24T10:13:25.387Z,3.10
2019-02-24T10:15:53.934Z,3.20
2019-02-24T10:18:22.350Z,3.20
2019-02-24T10:20:50.841Z,3.20
2019-02-24T10:23:19.253Z,3.10
2019-02-24T10:25:47.751Z,3.20
2019-02-24T10:28:16.203Z,3.20
2019-02-24T10:30:44.686Z,3.20
2019-02-24T10:33:13.099Z,3.30
2019-02-24T10:35:41.513Z,3.30
2019-02-24T10:38:09.943Z,3.40
2019-02-24T10:40:38.402Z,3.40
2019-02-24T10:43:06.815Z,3.50
2019-02-24T10:45:35.328Z,3.50
2019-02-24T10:48:07.495Z,3.60
2019-02-24T10:50:34.001Z,3.70
2019-02-24T10:53:02.432Z,3.80
2019-02-24T10:55:30.913Z,4.00
2019-02-24T10:57:59.323Z,4.10
2019-02-24T11:00:27.830Z,4.10
2019-02-24T11:02:56.240Z,4.20
2019-02-24T11:05:24.655Z,4.30
2019-02-24T11:07:53.074Z,4.40
2019-02-24T11:10:21.501Z,4.40
2019-02-24T11:12:49.989Z,4.40
2019-02-24T11:15:18.398Z,4.40
2019-02-24T11:17:46.887Z,4.50
2019-02-24T11:20:17.142Z,4.60
2019-02-24T11:22:45.610Z,4.60
2019-02-24T11:25:14.046Z,4.60
2019-02-24T11:27:42.542Z,4.70
2019-02-24T11:30:12.291Z,4.90
2019-02-24T11:32:40.703Z,4.90
2019-02-24T11:35:12.834Z,5.00
2019-02-24T11:37:41.319Z,5.00
2019-02-24T11:40:17.757Z,5.10
2019-02-24T11:42:46.175Z,5.20
2019-02-24T11:45:14.550Z,5.30
2019-02-24T11:47:42.999Z,5.30
2019-02-24T11:50:12.468Z,5.40
2019-02-24T11:52:40.953Z,5.30
2019-02-24T11:55:10.305Z,5.40
2019-02-24T11:57:38.859Z,5.40
2019-02-24T12:00:12.083Z,5.50
2019-02-24T12:02:41.807Z,5.50
2019-02-24T12:05:10.649Z,5.50
2019-02-24T12:07:39.071Z,5.50
2019-02-24T12:10:11.692Z,5.60
2019-02-24T12:12:40.196Z,5.60
2019-02-24T12:15:12.793Z,5.70
2019-02-24T12:17:41.282Z,5.70
2019-02-24T12:20:14.378Z,5.70
2019-02-24T12:22:42.790Z,5.70
2019-02-24T12:25:11.758Z,5.70
2019-02-24T12:27:40.174Z,5.70
2019-02-24T12:30:11.799Z,5.80
2019-02-24T12:32:40.208Z,5.80
2019-02-24T12:35:08.707Z,5.80
2019-02-24T12:37:37.169Z,6.00
2019-02-24T12:40:08.983Z,6.10
2019-02-24T12:42:37.403Z,6.00
2019-02-24T12:45:08.482Z,6.00
2019-02-24T12:47:36.914Z,6.20
2019-02-24T12:50:08.767Z,6.30
2019-02-24T12:52:37.180Z,6.30
2019-02-24T12:55:07.038Z,6.20
2019-02-24T12:57:35.455Z,6.40
2019-02-24T13:00:06.444Z,6.30
2019-02-24T13:02:34.163Z,6.40
2019-02-24T13:05:02.650Z,6.40
2019-02-24T13:07:31.062Z,6.40
2019-02-24T13:09:59.557Z,6.50
2019-02-24T13:12:27.975Z,6.70
2019-02-24T13:14:56.388Z,6.70
2019-02-24T13:17:24.806Z,6.70
2019-02-24T13:19:53.214Z,6.70
2019-02-24T13:22:21.631Z,6.70
2019-02-24T13:24:50.283Z,6.70
2019-02-24T13:27:18.695Z,6.80
2019-02-24T13:29:47.182Z,6.70
2019-02-24T13:32:15.594Z,6.80
2019-02-24T13:34:44.014Z,6.80
2019-02-24T13:37:12.432Z,6.70
2019-02-24T13:39:40.918Z,6.70
2019-02-24T13:42:09.440Z,6.60
2019-02-24T13:44:37.841Z,6.70
2019-02-24T13:47:06.262Z,6.70
2019-02-24T13:49:34.683Z,6.70
2019-02-24T13:52:03.280Z,6.80
2019-02-24T13:54:31.684Z,6.70
2019-02-24T13:57:00.135Z,6.70
2019-02-24T13:59:28.552Z,6.80
2019-02-24T14:01:56.997Z,6.90
2019-02-24T14:04:25.415Z,6.80
2019-02-24T14:06:53.911Z,6.90
2019-02-24T14:09:22.321Z,7.00
2019-02-24T14:11:50.807Z,7.00
2019-02-24T14:14:19.230Z,6.90
2019-02-24T14:16:47.645Z,7.10
2019-02-24T14:19:16.069Z,7.10
2019-02-24T14:21:44.493Z,7.00
2019-02-24T14:24:12.915Z,7.00
2019-02-24T14:26:41.396Z,6.90
2019-02-24T14:29:09.806Z,7.00
2019-02-24T14:31:38.218Z,6.90
2019-02-24T14:34:06.631Z,6.80
2019-02-24T14:36:35.054Z,6.70
2019-02-24T14:39:04.035Z,6.70
2019-02-24T14:41:32.499Z,6.70
2019-02-24T14:44:00.871Z,6.70
2019-02-24T14:46:29.360Z,6.70
2019-02-24T14:48:57.778Z,6.60
2019-02-24T14:51:26.191Z,6.50
2019-02-24T14:53:54.656Z,6.50
2019-02-24T14:56:23.144Z,6.30
2019-02-24T14:58:51.563Z,6.20
2019-02-24T15:01:20.063Z,6.30
2019-02-24T15:03:48.542Z,6.20
2019-02-24T15:06:16.963Z,6.30
2019-02-24T15:08:45.337Z,6.30
2019-02-24T15:11:13.718Z,6.20
2019-02-24T15:13:42.227Z,6.20
2019-02-24T15:16:11.831Z,6.20
2019-02-24T15:18:40.424Z,6.10
2019-02-24T15:21:08.851Z,6.20
2019-02-24T15:23:37.286Z,6.10
2019-02-24T15:26:05.698Z,6.40
2019-02-24T15:28:34.119Z,6.40
2019-02-24T15:31:02.531Z,6.50
2019-02-24T15:33:30.950Z,6.50
2019-02-24T15:35:59.358Z,6.50
2019-02-24T15:38:27.855Z,6.50
2019-02-24T15:40:56.271Z,6.40
2019-02-24T15:43:24.752Z,6.50
2019-02-24T15:45:53.170Z,6.60
2019-02-24T15:48:21.590Z,6.50
2019-02-24T15:50:50.006Z,6.50
2019-02-24T15:53:18.425Z,6.40
2019-02-24T15:55:46.852Z,6.30
2019-02-24T15:58:15.318Z,6.30
2019-02-24T16:00:43.731Z,6.40
2019-02-24T16:03:12.148Z,6.30
2019-02-24T16:05:40.560Z,6.30
2019-02-24T16:08:08.979Z,6.40
2019-02-24T16:10:37.394Z,6.30
2019-02-24T16:13:05.886Z,6.20
2019-02-24T16:15:34.297Z,6.10
2019-02-24T16:18:02.789Z,6.00
2019-02-24T16:20:33.126Z,5.90
2019-02-24T16:23:01.535Z,5.90
2019-02-24T16:25:30.027Z,5.80
2019-02-24T16:27:58.447Z,5.70
2019-02-24T16:30:26.863Z,5.80
2019-02-24T16:32:55.279Z,5.80
2019-02-24T16:35:23.770Z,5.80
2019-02-24T16:37:52.181Z,5.80
2019-02-24T16:40:25.195Z,5.80
2019-02-24T16:42:53.667Z,6.00
2019-02-24T16:45:22.115Z,5.90
2019-02-24T16:47:50.532Z,6.00
2019-02-24T16:50:23.624Z,6.00
2019-02-24T16:52:52.038Z,6.00
2019-02-24T16:55:20.515Z,5.90
2019-02-24T16:57:48.947Z,5.90
2019-02-24T17:00:19.935Z,5.70
2019-02-24T17:02:47.727Z,5.90
2019-02-24T17:05:16.147Z,5.90
2019-02-24T17:07:44.697Z,6.00
2019-02-24T17:10:15.915Z,6.00
2019-02-24T17:12:44.427Z,6.00
2019-02-24T17:15:13.215Z,5.90
2019-02-24T17:17:41.630Z,5.90
2019-02-24T17:20:12.689Z,5.90
2019-02-24T17:22:41.119Z,5.90
2019-02-24T17:25:10.280Z,5.80
2019-02-24T17:27:38.776Z,5.80
2019-02-24T17:30:10.352Z,5.80
2019-02-24T17:32:38.805Z,5.80
2019-02-24T17:35:07.635Z,5.70
2019-02-24T17:37:36.046Z,5.60
2019-02-24T17:40:07.425Z,5.60
2019-02-24T17:42:35.859Z,5.60
2019-02-24T17:45:06.302Z,5.50
2019-02-24T17:47:34.715Z,5.40
2019-02-24T17:50:03.407Z,5.40
2019-02-24T17:52:31.816Z,5.40
2019-02-24T17:55:00.343Z,5.40
2019-02-24T17:57:28.813Z,5.30
2019-02-24T17:59:57.302Z,5.30
2019-02-24T18:02:25.711Z,5.30
2019-02-24T18:04:54.198Z,5.30
2019-02-24T18:07:49.362Z,5.10
2019-02-24T18:10:17.843Z,5.20
2019-02-24T18:12:46.331Z,5.10
2019-02-24T18:15:14.818Z,5.00
2019-02-24T18:17:43.242Z,5.10
2019-02-24T18:20:17.045Z,5.00
2019-02-24T18:22:45.464Z,5.00
2019-02-24T18:25:13.955Z,5.00
2019-02-24T18:27:42.367Z,4.90
2019-02-24T18:30:16.586Z,4.90
2019-02-24T18:32:45.006Z,4.90
2019-02-24T18:35:13.523Z,4.90
2019-02-24T18:37:41.945Z,4.80
2019-02-24T18:40:12.298Z,4.80
2019-02-24T18:42:40.715Z,4.70
2019-02-24T18:45:11.551Z,4.70
2019-02-24T18:47:39.971Z,4.70
2019-02-24T18:50:16.259Z,4.70
2019-02-24T18:52:44.797Z,4.70
2019-02-24T18:55:13.539Z,4.70
2019-02-24T18:57:41.955Z,4.70
2019-02-24T19:00:16.863Z,4.70
2019-02-24T19:02:45.366Z,4.70
2019-02-24T19:05:13.782Z,4.60
2019-02-24T19:07:42.547Z,4.60
2019-02-24T19:10:14.221Z,4.60
2019-02-24T19:12:42.710Z,4.60
2019-02-24T19:15:14.028Z,4.60
2019-02-24T19:17:42.452Z,4.50
2019-02-24T19:20:16.042Z,4.50
2019-02-24T19:22:44.524Z,4.50
2019-02-24T19:25:12.943Z,4.50
2019-02-24T19:27:41.447Z,4.50
2019-02-24T19:30:12.403Z,4.50
2019-02-24T19:32:40.130Z,4.50
2019-02-24T19:35:10.363Z,4.50
2019-02-24T19:37:38.779Z,4.50
2019-02-24T19:40:22.382Z,4.40
2019-02-24T19:42:50.758Z,4.40
2019-02-24T19:45:28.027Z,4.40
2019-02-24T19:47:56.460Z,4.40
2019-02-24T19:50:24.954Z,4.40
2019-02-24T19:52:53.378Z,4.40
2019-02-24T19:55:21.799Z,4.30
2019-02-24T19:57:50.216Z,4.30
2019-02-24T20:00:25.777Z,4.30
2019-02-24T20:02:54.276Z,4.30
2019-02-24T20:05:22.761Z,4.30
2019-02-24T20:07:51.243Z,4.30
2019-02-24T20:10:29.949Z,4.30
2019-02-24T20:12:58.437Z,4.30
2019-02-24T20:15:27.057Z,4.30
2019-02-24T20:17:55.605Z,4.40
2019-02-24T20:20:24.082Z,4.40
2019-02-24T20:22:52.497Z,4.30
2019-02-24T20:25:24.469Z,4.30
2019-02-24T20:27:52.951Z,4.30
2019-02-24T20:30:23.709Z,4.30
2019-02-24T20:32:52.205Z,4.30
2019-02-24T20:35:20.718Z,4.30
2019-02-24T20:37:49.180Z,4.20
2019-02-24T20:40:17.654Z,4.20
2019-02-24T20:42:46.173Z,4.20
2019-02-24T20:45:22.570Z,4.30
2019-02-24T20:47:51.024Z,4.30
2019-02-24T20:50:22.770Z,4.30
2019-02-24T20:52:51.209Z,4.30
2019-02-24T20:55:19.687Z,4.30
2019-02-24T20:57:48.264Z,4.30
2019-02-24T21:00:19.652Z,4.30
2019-02-24T21:02:48.087Z,4.30
2019-02-24T21:05:16.504Z,4.20
2019-02-24T21:07:44.981Z,4.30
2019-02-24T21:10:13.398Z,4.30
2019-02-24T21:12:41.882Z,4.20
2019-02-24T21:15:12.846Z,4.30
2019-02-24T21:17:40.561Z,4.30
2019-02-24T21:20:19.242Z,4.20
2019-02-24T21:22:47.659Z,4.20
2019-02-24T21:25:16.070Z,4.20
2019-02-24T21:27:44.483Z,4.20
2019-02-24T21:30:15.966Z,4.10
2019-02-24T21:32:44.395Z,4.10
2019-02-24T21:35:12.889Z,4.10
2019-02-24T21:37:41.303Z,4.10
2019-02-24T21:40:17.256Z,4.10
2019-02-24T21:42:45.744Z,4.10
2019-02-24T21:45:20.249Z,4.10
2019-02-24T21:47:48.701Z,4.00
2019-02-24T21:50:17.548Z,4.00
2019-02-24T21:52:45.965Z,4.10
2019-02-24T21:55:14.467Z,4.10
2019-02-24T21:57:42.880Z,4.10
2019-02-24T22:00:23.339Z,4.10
2019-02-24T22:02:51.866Z,4.00
2019-02-24T22:05:20.345Z,4.00
2019-02-24T22:07:48.820Z,3.90
2019-02-24T22:10:17.242Z,3.90
2019-02-24T22:12:45.659Z,3.80
2019-02-24T22:15:21.782Z,3.80
2019-02-24T22:17:50.199Z,3.70
2019-02-24T22:20:18.711Z,3.70
2019-02-24T22:22:47.136Z,3.70
2019-02-24T22:25:15.891Z,3.70
2019-02-24T22:27:44.309Z,3.70
2019-02-24T22:30:19.934Z,3.60
2019-02-24T22:32:48.431Z,3.60
2019-02-24T22:35:16.939Z,3.50
2019-02-24T22:37:45.335Z,3.50
2019-02-24T22:40:16.599Z,3.50
2019-02-24T22:42:44.123Z,3.50
2019-02-24T22:45:16.733Z,3.50
2019-02-24T22:47:45.651Z,3.60
2019-02-24T22:50:14.615Z,3.50
2019-02-24T22:52:43.034Z,3.50
2019-02-24T22:55:13.096Z,3.50
2019-02-24T22:57:41.587Z,3.50
2019-02-24T23:00:29.199Z,3.40
2019-02-24T23:02:57.682Z,3.50
2019-02-24T23:05:26.172Z,3.50
2019-02-24T23:07:54.711Z,3.50
2019-02-24T23:10:23.107Z,3.40
2019-02-24T23:12:51.671Z,3.40
2019-02-24T23:15:20.087Z,3.30
2019-02-24T23:17:48.658Z,3.30
2019-02-24T23:20:17.071Z,3.30
2019-02-24T23:22:45.556Z,3.30
2019-02-24T23:25:13.972Z,3.30
2019-02-24T23:27:42.392Z,3.20
2019-02-24T23:30:10.809Z,3.20
2019-02-24T23:32:39.227Z,3.20
2019-02-24T23:35:07.648Z,3.20
2019-02-24T23:37:36.167Z,3.20
2019-02-24T23:40:07.130Z,3.20
2019-02-24T23:42:35.610Z,3.10
2019-02-24T23:45:10.284Z,3.10
2019-02-24T23:47:36.575Z,3.10
2019-02-24T23:50:09.854Z,3.00
2019-02-24T23:52:38.275Z,2.90
2019-02-24T23:55:07.585Z,3.00
2019-02-24T23:57:36.007Z,2.90
